createdAt,value
2023-02-01T00:02:41.993Z,3.87
2023-02-01T00:07:49.666Z,3.77
2023-02-01T00:12:53.254Z,3.73
2023-02-01T00:17:57.023Z,2.97
2023-02-01T00:23:00.595Z,4.00
2023-02-01T00:28:04.135Z,3.43
2023-02-01T05:32:21.014Z,2.53
2023-02-01T05:37:25.645Z,3.80
2023-02-01T05:42:29.164Z,2.67
2023-02-01T05:47:32.871Z,3.53
2023-02-01T05:52:36.523Z,3.23
2023-02-01T05:57:40.151Z,3.27
2023-02-01T06:02:43.726Z,2.70
2023-02-01T06:07:47.880Z,3.47
2023-02-01T06:12:51.569Z,2.37
2023-02-01T06:17:55.950Z,2.90
2023-02-01T06:22:59.525Z,2.97
2023-02-01T06:28:03.474Z,3.20
2023-02-01T06:33:07.063Z,4.20
2023-02-01T06:38:10.752Z,3.73
2023-02-01T06:43:14.389Z,4.10
2023-02-01T06:48:18.085Z,3.30
2023-02-01T06:53:21.619Z,3.57
2023-02-01T06:58:25.850Z,2.90
2023-02-01T07:03:30.070Z,4.07
2023-02-01T07:08:35.639Z,2.93
2023-02-01T07:13:39.864Z,3.50
2023-02-01T07:18:43.639Z,4.33
2023-02-01T07:23:47.358Z,4.13
2023-02-01T07:28:50.895Z,4.57
2023-02-01T07:33:54.478Z,4.83
2023-02-01T07:39:00.448Z,4.17
2023-02-01T07:44:03.933Z,4.27
2023-02-01T07:49:07.702Z,5.63
2023-02-01T07:54:11.535Z,3.37
2023-02-01T07:59:16.312Z,3.20
2023-02-01T08:04:20.160Z,3.73
2023-02-01T08:09:23.688Z,4.60
2023-02-01T08:14:27.891Z,4.03
2023-02-01T08:19:31.820Z,4.13
2023-02-01T08:24:36.029Z,3.53
2023-02-01T08:29:39.556Z,4.83
2023-02-01T08:34:43.128Z,3.93
2023-02-01T08:39:47.860Z,4.80
2023-02-01T08:44:51.395Z,3.80
2023-02-01T08:49:55.018Z,4.60
2023-02-01T08:54:58.581Z,3.93
2023-02-01T09:00:02.374Z,4.10
2023-02-01T09:05:07.180Z,4.47
2023-02-01T09:10:11.429Z,3.67
2023-02-01T09:15:15.179Z,3.77
2023-02-01T09:20:20.225Z,5.97
2023-02-01T09:25:23.936Z,4.07
2023-02-01T09:30:29.695Z,5.50
2023-02-01T09:35:33.939Z,4.60
2023-02-01T09:40:37.953Z,5.73
2023-02-01T09:46:05.629Z,4.10
2023-02-01T09:51:22.773Z,3.63
2023-02-01T09:56:30.948Z,3.93
2023-02-01T10:01:34.457Z,2.70
2023-02-01T10:06:53.361Z,4.20
2023-02-01T10:12:25.657Z,3.40
2023-02-01T10:17:50.721Z,3.60
2023-02-01T10:23:33.948Z,4.10
2023-02-01T10:28:39.838Z,3.40
2023-02-01T10:33:53.309Z,3.60
2023-02-01T10:39:00.857Z,4.17
2023-02-01T10:44:14.814Z,3.37
2023-02-01T10:49:35.620Z,3.60
2023-02-01T10:54:40.435Z,4.37
2023-02-01T10:59:45.959Z,3.37
2023-02-01T11:04:49.648Z,3.03
2023-02-01T11:09:59.060Z,3.37
2023-02-01T11:15:28.871Z,3.40
2023-02-01T11:20:33.188Z,3.30
2023-02-01T11:25:38.175Z,3.57
2023-02-01T11:30:44.374Z,3.73
2023-02-01T11:35:49.815Z,3.13
2023-02-01T11:40:53.450Z,3.97
2023-02-01T11:46:02.099Z,3.17
2023-02-01T11:51:24.314Z,3.47
2023-02-01T11:56:38.512Z,2.70
2023-02-01T12:01:54.089Z,2.13
2023-02-01T12:07:15.116Z,2.73
2023-02-01T12:12:38.256Z,3.87
2023-02-01T12:18:03.476Z,2.70
2023-02-01T12:23:25.588Z,3.27
2023-02-01T12:28:48.111Z,2.77
2023-02-01T12:34:16.488Z,3.53
2023-02-01T12:39:32.629Z,3.07
2023-02-01T12:45:10.948Z,3.57
2023-02-01T12:50:34.125Z,2.63
2023-02-01T12:55:51.758Z,2.47
2023-02-01T13:01:15.811Z,2.47
2023-02-01T13:06:29.502Z,3.73
2023-02-01T13:11:42.017Z,3.10
2023-02-01T13:16:51.470Z,3.33
2023-02-01T13:22:08.892Z,2.40
2023-02-01T13:27:14.702Z,3.53
2023-02-01T13:33:50.854Z,3.07
2023-02-01T13:38:22.468Z,3.10
2023-02-01T13:43:28.893Z,3.33
2023-02-01T13:48:55.448Z,3.27
2023-02-01T13:53:59.052Z,4.03
2023-02-01T13:59:43.657Z,3.60
2023-02-01T14:04:50.285Z,3.23
2023-02-01T14:09:54.777Z,2.70
2023-02-01T14:15:23.110Z,2.87
2023-02-01T14:20:46.545Z,2.67
2023-02-01T14:26:03.289Z,3.90
2023-02-01T14:31:26.068Z,3.13
2023-02-01T14:36:45.205Z,3.07
2023-02-01T14:41:49.451Z,3.90
2023-02-01T14:47:10.954Z,3.30
2023-02-01T14:52:18.896Z,2.50
2023-02-01T14:57:24.974Z,2.70
2023-02-01T15:02:29.368Z,3.30
2023-02-01T15:07:33.187Z,2.73
2023-02-01T15:12:45.362Z,3.67
2023-02-01T15:18:01.112Z,3.23
2023-02-01T15:23:17.800Z,4.77
2023-02-01T15:28:22.222Z,3.90
2023-02-01T15:33:27.455Z,4.20
2023-02-01T15:38:40.593Z,3.70
2023-02-01T15:43:56.225Z,3.60
2023-02-01T15:49:00.232Z,3.60
2023-02-01T15:54:06.618Z,4.60
2023-02-01T15:59:21.092Z,3.70
2023-02-01T16:04:27.102Z,4.20
2023-02-01T16:09:46.381Z,3.43
2023-02-01T16:14:50.015Z,4.77
2023-02-01T16:19:54.867Z,4.97
2023-02-01T16:24:58.605Z,5.97
2023-02-01T16:30:02.455Z,4.77
2023-02-01T16:35:12.188Z,5.43
2023-02-01T16:40:17.717Z,5.20
2023-02-01T16:45:21.611Z,4.40
2023-02-01T16:50:26.812Z,3.90
2023-02-01T16:55:30.789Z,5.17
2023-02-01T17:00:37.906Z,4.80
2023-02-01T17:05:41.800Z,4.37
2023-02-01T17:10:45.339Z,4.87
2023-02-01T17:15:58.208Z,5.00
2023-02-01T17:21:02.932Z,4.00
2023-02-01T17:26:09.239Z,4.20
2023-02-01T17:31:17.125Z,3.87
2023-02-01T17:36:20.983Z,3.47
2023-02-01T17:41:24.805Z,3.83
2023-02-01T17:46:28.783Z,3.77
2023-02-01T17:51:32.625Z,2.90
2023-02-01T17:56:36.246Z,4.50
2023-02-01T18:01:41.091Z,3.90
2023-02-01T18:06:45.395Z,4.87
2023-02-01T18:11:50.650Z,4.50
2023-02-01T18:16:57.472Z,3.87
2023-02-01T18:22:03.530Z,3.70
2023-02-01T18:27:08.043Z,3.23
2023-02-01T18:32:14.529Z,3.37
2023-02-01T18:37:18.537Z,4.10
2023-02-01T18:42:22.369Z,4.70
2023-02-01T18:47:26.151Z,5.10
2023-02-01T18:52:32.669Z,6.03
2023-02-01T18:57:36.850Z,4.60
2023-02-01T19:02:40.709Z,4.57
2023-02-01T19:07:45.332Z,4.13
2023-02-01T19:12:50.061Z,4.33
2023-02-01T19:17:55.395Z,4.00
2023-02-01T19:22:59.048Z,4.23
2023-02-01T19:28:02.770Z,3.87
2023-02-01T19:33:06.763Z,5.17
2023-02-01T19:38:25.874Z,6.63
2023-02-01T19:43:32.932Z,6.30
2023-02-01T19:48:36.902Z,7.43
2023-02-01T19:53:40.672Z,5.00
2023-02-01T19:58:44.241Z,5.57
2023-02-01T20:03:47.046Z,6.13
2023-02-01T20:08:51.259Z,5.57
2023-02-01T20:13:56.294Z,5.40
2023-02-01T20:19:00.004Z,4.53
2023-02-01T20:24:04.988Z,4.47
2023-02-01T20:29:09.486Z,5.30
2023-02-01T20:34:13.977Z,5.33
2023-02-01T20:39:17.595Z,6.13
2023-02-01T20:44:21.622Z,6.40
2023-02-01T20:49:25.415Z,6.60
2023-02-01T20:54:29.252Z,5.33
2023-02-01T20:59:33.101Z,5.20
2023-02-01T21:04:37.492Z,5.50
2023-02-01T21:09:42.187Z,5.20
2023-02-01T21:14:45.972Z,4.70
2023-02-01T21:19:49.647Z,4.47
2023-02-01T21:24:53.510Z,4.57
2023-02-01T21:29:57.136Z,3.80
2023-02-01T21:35:00.712Z,5.10
2023-02-01T21:40:04.532Z,4.37
2023-02-01T21:45:09.719Z,3.67
2023-02-01T21:50:18.856Z,4.23
2023-02-01T21:55:23.586Z,6.03
2023-02-01T22:00:28.186Z,5.23
2023-02-01T22:05:31.833Z,4.57
2023-02-01T22:10:35.519Z,4.73
2023-02-01T22:15:39.373Z,4.50
2023-02-01T22:20:42.904Z,4.37
2023-02-01T22:25:46.483Z,4.10
2023-02-01T22:30:50.227Z,3.63
2023-02-01T22:35:54.107Z,4.60
2023-02-01T22:40:58.813Z,3.53
2023-02-01T22:46:04.616Z,2.83
2023-02-01T22:51:11.694Z,3.30
2023-02-01T22:56:17.240Z,3.97
2023-02-01T23:01:20.861Z,4.10
2023-02-01T23:06:24.508Z,3.77
2023-02-01T23:11:28.920Z,3.87
2023-02-01T23:16:32.957Z,3.50
2023-02-01T23:21:37.044Z,3.57
2023-02-01T23:26:41.028Z,3.13
2023-02-01T23:31:44.834Z,2.63
2023-02-01T23:36:48.515Z,3.37
2023-02-01T23:41:52.266Z,2.47
2023-02-01T23:46:55.937Z,3.53
2023-02-01T23:51:59.541Z,4.20
2023-02-01T23:57:03.212Z,3.20
